Time,TemperatureF,DewpointF,PressureIn,WindDirection,WindDirectionDegrees,WindSpeedMPH,WindSpeedGustMPH,Humidity,HourlyPrecipIn,Conditions,Clouds,dailyrainin,SolarRadiationWatts/m^2,SoftwareType,DateUTC
2013-12-18 00:00:00,17.9,14.4,29.96,North,5,0.0,0.0,86,0.00,,,0.38,0,Wunderground v.1.15,2013-12-18 05:00:00,
2013-12-18 00:01:00,17.9,14.4,29.95,NNE,26,0.0,0.0,86,0.00,,,0.38,0,Wunderground v.1.15,2013-12-18 05:01:00,
2013-12-18 00:08:00,17.7,14.2,29.95,NNE,17,0.0,0.0,86,0.00,,,0.00,0,Wunderground v.1.15,2013-12-18 05:08:00,
2013-12-18 00:14:00,17.6,14.1,29.94,NE,51,0.0,0.0,86,0.00,,,0.00,0,Wunderground v.1.15,2013-12-18 05:14:00,
2013-12-18 00:26:00,17.5,14.0,29.94,NE,46,0.0,0.0,86,0.00,,,0.00,0,Wunderground v.1.15,2013-12-18 05:26:00,
2013-12-18 00:31:00,17.4,13.9,29.94,NNE,20,0.0,0.0,86,0.00,,,0.00,0,Wunderground v.1.15,2013-12-18 05:31:00,
2013-12-18 00:38:00,17.3,13.8,29.94,NNE,24,0.0,0.0,86,0.00,,,0.00,0,Wunderground v.1.15,2013-12-18 05:38:00,
2013-12-18 00:45:00,17.3,13.8,29.93,NNE,13,0.0,0.0,86,0.00,,,0.00,0,Wunderground v.1.15,2013-12-18 05:45:00,
2013-12-18 00:53:00,17.2,13.7,29.92,NE,51,0.0,0.0,86,0.00,,,0.00,0,Wunderground v.1.15,2013-12-18 05:53:00,
2013-12-18 00:58:00,17.1,13.6,29.92,NNE,19,0.0,0.0,86,0.00,,,0.00,0,Wunderground v.1.15,2013-12-18 05:58:00,
2013-12-18 01:03:00,17.1,13.6,29.92,NNE,32,0.0,0.0,86,0.00,,,0.00,0,Wunderground v.1.15,2013-12-18 06:03:00,
2013-12-18 01:09:00,17.0,13.5,29.92,North,5,0.0,0.0,86,0.00,,,0.00,0,Wunderground v.1.15,2013-12-18 06:09:00,
2013-12-18 01:14:00,17.0,13.5,29.92,NNE,15,0.0,0.0,86,0.00,,,0.00,0,Wunderground v.1.15,2013-12-18 06:14:00,
2013-12-18 01:20:00,16.9,13.4,29.92,NNE,32,0.0,0.0,86,0.00,,,0.00,0,Wunderground v.1.15,2013-12-18 06:20:00,
2013-12-18 01:25:00,16.8,13.3,29.92,NNE,26,0.0,0.0,86,0.00,,,0.00,0,Wunderground v.1.15,2013-12-18 06:25:00,
2013-12-18 01:30:00,16.7,13.2,29.93,NNE,24,0.0,0.0,86,0.00,,,0.00,0,Wunderground v.1.15,2013-12-18 06:30:00,
2013-12-18 01:37:00,16.6,13.1,29.92,NNE,17,0.0,0.0,86,0.00,,,0.00,0,Wunderground v.1.15,2013-12-18 06:37:00,
2013-12-18 01:43:00,16.6,12.9,29.92,North,9,0.0,0.0,85,0.00,,,0.00,0,Wunderground v.1.15,2013-12-18 06:43:00,
2013-12-18 01:50:00,16.4,12.7,29.92,NNE,19,0.0,0.0,85,0.00,,,0.00,0,Wunderground v.1.15,2013-12-18 06:50:00,
2013-12-18 01:56:00,16.3,12.6,29.92,NNW,348,0.0,0.0,85,0.00,,,0.00,0,Wunderground v.1.15,2013-12-18 06:56:00,
2013-12-18 02:01:00,16.2,12.7,29.91,North,350,0.0,0.0,86,0.00,,,0.00,0,Wunderground v.1.15,2013-12-18 07:01:00,
2013-12-18 02:06:00,16.1,12.4,29.91,NNW,338,0.0,0.0,85,0.00,,,0.00,0,Wunderground v.1.15,2013-12-18 07:06:00,
2013-12-18 02:11:00,16.0,12.3,29.92,NNW,338,0.0,0.0,85,0.00,,,0.00,0,Wunderground v.1.15,2013-12-18 07:11:00,
2013-12-18 02:16:00,15.9,12.5,29.92,NNW,329,0.0,0.0,86,0.00,,,0.00,0,Wunderground v.1.15,2013-12-18 07:16:00,
2013-12-18 02:21:00,15.9,12.2,29.91,NNW,329,0.0,0.0,85,0.00,,,0.00,0,Wunderground v.1.15,2013-12-18 07:21:00,
2013-12-18 02:26:00,15.8,12.1,29.92,North,355,0.0,0.0,85,0.00,,,0.00,0,Wunderground v.1.15,2013-12-18 07:26:00,
2013-12-18 02:31:00,15.7,12.0,29.91,North,10,0.0,0.0,85,0.00,,,0.00,0,Wunderground v.1.15,2013-12-18 07:31:00,
2013-12-18 02:36:00,15.7,12.0,29.91,NE,41,0.0,0.0,85,0.00,,,0.00,0,Wunderground v.1.15,2013-12-18 07:36:00,
2013-12-18 02:41:00,15.7,12.0,29.91,ENE,62,0.0,0.0,85,0.00,,,0.00,0,Wunderground v.1.15,2013-12-18 07:41:00,
2013-12-18 02:47:00,15.7,12.0,29.90,ENE,62,0.0,0.0,85,0.00,,,0.00,0,Wunderground v.1.15,2013-12-18 07:47:00,
2013-12-18 02:52:00,15.7,12.0,29.90,NE,44,0.0,0.0,85,0.00,,,0.00,0,Wunderground v.1.15,2013-12-18 07:52:00,
2013-12-18 02:57:00,15.7,12.0,29.90,North,10,0.0,0.0,85,0.00,,,0.00,0,Wunderground v.1.15,2013-12-18 07:57:00,
2013-12-18 03:02:00,15.8,12.1,29.89,North,5,0.0,0.0,85,0.00,,,0.00,0,Wunderground v.1.15,2013-12-18 08:02:00,
2013-12-18 03:07:00,15.8,12.4,29.90,North,5,0.0,0.0,86,0.00,,,0.00,0,Wunderground v.1.15,2013-12-18 08:07:00,
2013-12-18 03:12:00,15.8,12.4,29.89,WNW,296,0.0,0.0,86,0.00,,,0.00,0,Wunderground v.1.15,2013-12-18 08:12:00,
2013-12-18 03:17:00,15.9,12.5,29.89,NNW,346,0.0,0.0,86,0.00,,,0.00,0,Wunderground v.1.15,2013-12-18 08:17:00,
2013-12-18 03:22:00,15.9,12.5,29.89,North,351,0.0,0.0,86,0.00,,,0.00,0,Wunderground v.1.15,2013-12-18 08:22:00,
2013-12-18 03:27:00,16.0,12.6,29.89,North,5,0.0,0.0,86,0.00,,,0.00,0,Wunderground v.1.15,2013-12-18 08:27:00,
2013-12-18 03:32:00,16.1,12.7,29.89,NNE,19,0.0,0.0,86,0.00,,,0.00,0,Wunderground v.1.15,2013-12-18 08:32:00,
2013-12-18 03:37:00,16.1,12.7,29.89,NNE,19,0.0,0.0,86,0.00,,,0.00,0,Wunderground v.1.15,2013-12-18 08:37:00,
2013-12-18 03:42:00,16.2,12.7,29.89,NNE,19,0.0,0.0,86,0.00,,,0.00,0,Wunderground v.1.15,2013-12-18 08:42:00,
2013-12-18 03:47:00,16.3,12.8,29.89,NNE,19,0.0,0.0,86,0.00,,,0.00,0,Wunderground v.1.15,2013-12-18 08:47:00,
2013-12-18 03:52:00,16.4,12.9,29.89,NNW,347,0.0,0.0,86,0.00,,,0.00,0,Wunderground v.1.15,2013-12-18 08:52:00,
2013-12-18 03:57:00,16.5,13.0,29.89,NNW,347,0.0,0.0,86,0.00,,,0.00,0,Wunderground v.1.15,2013-12-18 08:57:00,
2013-12-18 04:03:00,16.6,13.1,29.89,NNW,348,0.0,0.0,86,0.00,,,0.00,0,Wunderground v.1.15,2013-12-18 09:03:00,
2013-12-18 04:08:00,16.7,13.2,29.90,NNW,348,0.0,0.0,86,0.00,,,0.00,0,Wunderground v.1.15,2013-12-18 09:08:00,
2013-12-18 04:13:00,16.8,13.3,29.90,NNW,348,0.0,0.0,86,0.00,,,0.00,0,Wunderground v.1.15,2013-12-18 09:13:00,
2013-12-18 04:18:00,16.9,13.4,29.89,NNW,347,0.0,0.0,86,0.00,,,0.00,0,Wunderground v.1.15,2013-12-18 09:18:00,
2013-12-18 04:23:00,17.0,13.5,29.89,NNW,347,0.0,0.0,86,0.00,,,0.00,0,Wunderground v.1.15,2013-12-18 09:23:00,
2013-12-18 04:28:00,17.1,13.6,29.89,NNW,347,0.0,0.0,86,0.00,,,0.00,0,Wunderground v.1.15,2013-12-18 09:28:00,
2013-12-18 04:34:00,17.2,13.7,29.90,NNE,26,0.0,0.0,86,0.00,,,0.00,0,Wunderground v.1.15,2013-12-18 09:34:00,
2013-12-18 04:39:00,17.3,13.8,29.89,NW,324,0.0,0.0,86,0.00,,,0.00,0,Wunderground v.1.15,2013-12-18 09:39:00,
2013-12-18 04:44:00,17.4,13.9,29.90,NW,323,0.0,0.0,86,0.00,,,0.00,0,Wunderground v.1.15,2013-12-18 09:44:00,
2013-12-18 04:49:00,17.6,14.1,29.89,NW,324,0.0,0.0,86,0.00,,,0.00,0,Wunderground v.1.15,2013-12-18 09:49:00,
2013-12-18 04:54:00,17.7,14.2,29.90,NW,324,0.0,0.0,86,0.00,,,0.00,0,Wunderground v.1.15,2013-12-18 09:54:00,
2013-12-18 04:59:00,17.9,14.4,29.91,NW,324,0.0,0.0,86,0.00,,,0.00,0,Wunderground v.1.15,2013-12-18 09:59:00,
2013-12-18 05:04:00,18.1,14.4,29.91,NNE,25,0.0,0.0,85,0.00,,,0.00,0,Wunderground v.1.15,2013-12-18 10:04:00,
2013-12-18 05:09:00,18.4,14.6,29.92,NNE,25,0.0,0.0,85,0.00,,,0.00,0,Wunderground v.1.15,2013-12-18 10:09:00,
2013-12-18 05:15:00,18.6,15.1,29.91,NNE,19,0.0,0.0,86,0.00,,,0.00,0,Wunderground v.1.15,2013-12-18 10:15:00,
2013-12-18 05:20:00,18.8,15.0,29.91,NW,306,0.0,0.0,85,0.00,,,0.00,0,Wunderground v.1.15,2013-12-18 10:20:00,
2013-12-18 05:25:00,19.0,15.2,29.92,NW,306,0.0,0.0,85,0.00,,,0.00,0,Wunderground v.1.15,2013-12-18 10:25:00,
2013-12-18 05:30:00,19.1,15.3,29.92,NW,306,0.0,0.0,85,0.00,,,0.00,0,Wunderground v.1.15,2013-12-18 10:30:00,
2013-12-18 05:35:00,19.4,15.6,29.92,NNW,340,0.0,0.0,85,0.00,,,0.00,0,Wunderground v.1.15,2013-12-18 10:35:00,
2013-12-18 05:40:00,19.5,15.7,29.92,NNW,340,0.0,0.0,85,0.00,,,0.00,0,Wunderground v.1.15,2013-12-18 10:40:00,
2013-12-18 05:45:00,19.7,15.9,29.92,NNW,340,0.0,0.0,85,0.00,,,0.00,0,Wunderground v.1.15,2013-12-18 10:45:00,
2013-12-18 05:50:00,19.9,16.1,29.92,NNW,340,0.0,0.0,85,0.00,,,0.00,0,Wunderground v.1.15,2013-12-18 10:50:00,
2013-12-18 05:55:00,20.0,16.2,29.92,NNW,340,0.0,0.0,85,0.00,,,0.00,0,Wunderground v.1.15,2013-12-18 10:55:00,
2013-12-18 06:00:00,20.2,16.4,29.93,NNW,340,0.0,0.0,85,0.00,,,0.00,0,Wunderground v.1.15,2013-12-18 11:00:00,
2013-12-18 06:05:00,20.3,16.5,29.93,NNW,340,0.0,0.0,85,0.00,,,0.00,0,Wunderground v.1.15,2013-12-18 11:05:00,
2013-12-18 06:10:00,20.4,16.6,29.93,NW,305,0.0,0.0,85,0.00,,,0.00,0,Wunderground v.1.15,2013-12-18 11:10:00,
2013-12-18 06:14:00,20.6,16.8,29.93,NW,320,0.0,0.0,85,0.00,,,0.00,0,Wunderground v.1.15,2013-12-18 11:14:00,
2013-12-18 06:19:00,20.7,16.9,29.93,NNW,338,0.0,0.0,85,0.00,,,0.00,0,Wunderground v.1.15,2013-12-18 11:19:00,
2013-12-18 06:24:00,20.9,17.1,29.93,NNE,13,0.0,0.0,85,0.00,,,0.00,0,Wunderground v.1.15,2013-12-18 11:24:00,
2013-12-18 06:29:00,21.1,17.3,29.93,North,5,0.0,0.0,85,0.00,,,0.00,0,Wunderground v.1.15,2013-12-18 11:29:00,
2013-12-18 06:34:00,21.3,17.5,29.93,North,5,0.0,0.0,85,0.00,,,0.00,0,Wunderground v.1.15,2013-12-18 11:34:00,
2013-12-18 06:39:00,21.5,17.7,29.93,NNW,342,0.0,0.0,85,0.00,,,0.00,0,Wunderground v.1.15,2013-12-18 11:39:00,
2013-12-18 06:45:00,21.8,18.0,29.93,NW,323,0.0,0.0,85,0.00,,,0.00,0,Wunderground v.1.15,2013-12-18 11:45:00,
2013-12-18 06:50:00,22.0,18.2,29.92,NNW,348,0.0,0.0,85,0.00,,,0.00,0,Wunderground v.1.15,2013-12-18 11:50:00,
2013-12-18 06:55:00,22.2,18.4,29.92,NE,53,0.0,0.0,85,0.00,,,0.00,0,Wunderground v.1.15,2013-12-18 11:55:00,
2013-12-18 07:00:00,22.4,18.6,29.92,NE,38,0.0,0.0,85,0.00,,,0.00,0,Wunderground v.1.15,2013-12-18 12:00:00,
2013-12-18 07:05:00,22.6,18.8,29.92,WNW,285,0.0,0.0,85,0.00,,,0.00,0,Wunderground v.1.15,2013-12-18 12:05:00,
2013-12-18 07:10:00,22.8,19.0,29.92,ENE,58,0.0,0.0,85,0.00,,,0.00,0,Wunderground v.1.15,2013-12-18 12:10:00,
2013-12-18 07:15:00,22.9,19.1,29.92,NNE,12,0.0,0.0,85,0.00,,,0.00,0,Wunderground v.1.15,2013-12-18 12:15:00,
2013-12-18 07:20:00,23.0,21.0,29.91,NNE,15,0.0,0.0,92,0.00,,,0.00,0,Wunderground v.1.15,2013-12-18 12:20:00,
2013-12-18 07:25:00,23.1,19.3,29.91,NW,324,0.0,0.0,85,0.00,,,0.00,0,Wunderground v.1.15,2013-12-18 12:25:00,
2013-12-18 07:30:00,23.1,19.3,29.92,North,11,0.0,0.0,85,0.00,,,0.00,0,Wunderground v.1.15,2013-12-18 12:30:00,
2013-12-18 07:35:00,23.2,19.4,29.92,North,355,0.0,0.0,85,0.00,,,0.00,0,Wunderground v.1.15,2013-12-18 12:35:00,
2013-12-18 07:40:00,23.2,19.4,29.92,North,355,0.0,0.0,85,0.00,,,0.00,0,Wunderground v.1.15,2013-12-18 12:40:00,
2013-12-18 07:45:00,23.2,19.4,29.92,NNW,340,0.0,0.0,85,0.00,,,0.00,0,Wunderground v.1.15,2013-12-18 12:45:00,
2013-12-18 07:50:00,23.1,19.3,29.92,WNW,300,0.0,0.0,85,0.00,,,0.00,0,Wunderground v.1.15,2013-12-18 12:50:00,
2013-12-18 07:55:00,23.1,19.3,29.92,NW,319,0.0,0.0,85,0.00,,,0.00,5,Wunderground v.1.15,2013-12-18 12:55:00,
2013-12-18 08:00:00,23.1,19.3,29.92,NW,319,0.0,0.0,85,0.00,,,0.00,7,Wunderground v.1.15,2013-12-18 13:00:00,
2013-12-18 08:05:00,23.1,19.3,29.92,NW,319,0.0,0.0,85,0.00,,,0.00,9,Wunderground v.1.15,2013-12-18 13:05:00,
2013-12-18 08:10:00,23.1,19.3,29.92,NW,319,0.0,0.0,85,0.00,,,0.00,11,Wunderground v.1.15,2013-12-18 13:10:00,
2013-12-18 08:15:00,23.1,19.3,29.92,NW,319,0.0,0.0,85,0.00,,,0.00,9,Wunderground v.1.15,2013-12-18 13:15:00,
2013-12-18 08:20:00,23.2,19.4,29.92,WNW,294,0.0,0.0,85,0.00,,,0.00,11,Wunderground v.1.15,2013-12-18 13:20:00,
2013-12-18 08:26:00,23.3,19.5,29.92,NNE,17,0.0,0.0,85,0.00,,,0.00,14,Wunderground v.1.15,2013-12-18 13:26:00,
2013-12-18 08:31:00,23.4,19.6,29.92,NNE,32,0.0,0.0,85,0.00,,,0.00,12,Wunderground v.1.15,2013-12-18 13:31:00,
2013-12-18 08:36:00,23.6,19.8,29.92,NNE,16,0.0,0.0,85,0.00,,,0.01,19,Wunderground v.1.15,2013-12-18 13:36:00,
2013-12-18 08:41:00,23.8,19.9,29.92,NNE,15,0.0,0.0,85,0.00,,,0.01,14,Wunderground v.1.15,2013-12-18 13:41:00,
2013-12-18 08:46:00,24.0,20.1,29.93,NNE,15,0.0,0.0,85,0.00,,,0.01,16,Wunderground v.1.15,2013-12-18 13:46:00,
2013-12-18 08:51:00,24.3,20.4,29.93,NNE,13,0.0,0.0,85,0.00,,,0.01,19,Wunderground v.1.15,2013-12-18 13:51:00,
2013-12-18 08:56:00,24.7,20.8,29.92,NE,46,0.0,0.0,85,0.00,,,0.01,28,Wunderground v.1.15,2013-12-18 13:56:00,
2013-12-18 09:01:00,25.1,21.2,29.93,NNW,342,0.0,0.0,85,0.00,,,0.01,25,Wunderground v.1.15,2013-12-18 14:01:00,
2013-12-18 09:06:00,25.5,21.6,29.93,NNE,17,0.0,0.0,85,0.00,,,0.01,19,Wunderground v.1.15,2013-12-18 14:06:00,
2013-12-18 09:11:00,25.8,21.9,29.93,NW,311,0.0,0.0,85,0.00,,,0.01,18,Wunderground v.1.15,2013-12-18 14:11:00,
2013-12-18 09:16:00,26.1,22.2,29.93,NW,315,0.0,0.0,85,0.00,,,0.01,14,Wunderground v.1.15,2013-12-18 14:16:00,
2013-12-18 09:21:00,26.4,22.5,29.93,NNW,330,0.0,0.0,85,0.00,,,0.01,12,Wunderground v.1.15,2013-12-18 14:21:00,
2013-12-18 09:26:00,26.5,22.6,29.93,NNE,15,0.0,0.0,85,0.00,,,0.01,12,Wunderground v.1.15,2013-12-18 14:26:00,
2013-12-18 09:31:00,26.7,22.8,29.93,NE,42,0.0,0.0,85,0.00,,,0.01,12,Wunderground v.1.15,2013-12-18 14:31:00,
2013-12-18 09:36:00,26.8,22.9,29.94,NE,40,0.0,0.0,85,0.00,,,0.01,12,Wunderground v.1.15,2013-12-18 14:36:00,
2013-12-18 09:41:00,26.8,22.9,29.93,West,261,0.0,0.0,85,0.00,,,0.01,14,Wunderground v.1.15,2013-12-18 14:41:00,
2013-12-18 09:46:00,26.9,23.0,29.93,NE,36,0.0,0.0,85,0.00,,,0.01,12,Wunderground v.1.15,2013-12-18 14:46:00,
2013-12-18 09:51:00,26.8,22.6,29.93,NE,45,0.0,0.0,84,0.00,,,0.01,40,Wunderground v.1.15,2013-12-18 14:51:00,
2013-12-18 09:56:00,26.9,22.7,29.93,West,267,0.0,0.0,84,0.00,,,0.01,42,Wunderground v.1.15,2013-12-18 14:56:00,
2013-12-18 10:01:00,27.0,22.8,29.93,West,267,0.0,0.0,84,0.00,,,0.01,83,Wunderground v.1.15,2013-12-18 15:01:00,
2013-12-18 10:06:00,27.3,22.8,29.93,West,267,0.0,0.0,83,0.00,,,0.01,76,Wunderground v.1.15,2013-12-18 15:06:00,
2013-12-18 10:11:00,27.7,23.2,29.92,NNW,336,0.0,0.0,83,0.00,,,0.01,100,Wunderground v.1.15,2013-12-18 15:11:00,
2013-12-18 10:16:00,28.2,23.4,29.93,NE,53,0.0,0.0,82,0.00,,,0.01,104,Wunderground v.1.15,2013-12-18 15:16:00,
2013-12-18 10:21:00,28.8,23.7,29.93,North,360,0.0,0.0,81,0.00,,,0.01,123,Wunderground v.1.15,2013-12-18 15:21:00,
2013-12-18 10:26:00,29.2,24.1,29.93,West,261,0.0,0.0,81,0.00,,,0.01,19,Wunderground v.1.15,2013-12-18 15:26:00,
2013-12-18 10:31:00,29.5,23.8,29.93,NW,326,0.0,0.0,79,0.00,,,0.01,30,Wunderground v.1.15,2013-12-18 15:31:00,
2013-12-18 10:37:00,29.7,23.7,29.93,North,5,0.0,0.0,78,0.00,,,0.01,49,Wunderground v.1.15,2013-12-18 15:37:00,
2013-12-18 10:42:00,29.9,23.9,29.93,North,9,0.0,0.0,78,0.00,,,0.01,81,Wunderground v.1.15,2013-12-18 15:42:00,